Time;durP1;ratioP1;P1;durP2;ratioP2;P2;SDS_P1;SDS_P2;PMS_P1;PMS_P2;Temp;Humidity;BMP_temperature;BMP_pressure;BME280_temperature;BME280_humidity;BME280_pressure;Samples;Min_cycle;Max_cycle;Signal;HPM_P1;HPM_P2
2021/09/10 00:00:52;;;;;;;7.55;3.58;;;;;;;16.87;70.98;100726.25;5035026;28;20029;-68
2021/09/10 00:03:17;;;;;;;8.20;3.45;;;;;;;16.78;70.97;100703.50;5034457;28;20029;-68
2021/09/10 00:05:43;;;;;;;6.07;3.50;;;;;;;16.95;70.99;100726.41;5034008;28;20033;-68
2021/09/10 00:08:08;;;;;;;6.95;3.30;;;;;;;17.01;71.24;100720.38;5034056;28;20075;-68
2021/09/10 00:10:34;;;;;;;6.00;3.40;;;;;;;16.96;70.58;100715.13;5034051;28;20025;-68
2021/09/10 00:12:59;;;;;;;6.18;3.03;;;;;;;16.90;70.20;100722.84;5034194;28;20083;-68
2021/09/10 00:15:25;;;;;;;5.68;3.10;;;;;;;16.88;69.69;100735.81;5034262;28;20032;-68
2021/09/10 00:17:51;;;;;;;6.47;3.35;;;;;;;16.93;69.77;100725.50;5033858;28;20460;-68
2021/09/10 00:20:16;;;;;;;6.88;3.40;;;;;;;17.00;69.56;100736.88;5033774;28;20048;-65
2021/09/10 00:22:42;;;;;;;8.27;3.53;;;;;;;17.00;70.01;100735.19;5034009;28;20074;-66
2021/09/10 00:25:08;;;;;;;7.45;3.28;;;;;;;16.98;70.29;100739.47;5033796;28;20025;-66
2021/09/10 00:27:33;;;;;;;7.22;2.88;;;;;;;16.96;70.29;100744.69;5033579;28;20052;-68
2021/09/10 00:29:59;;;;;;;5.35;2.88;;;;;;;16.85;69.81;100741.00;5034423;28;20021;-67
2021/09/10 00:32:24;;;;;;;11.85;3.70;;;;;;;16.82;70.15;100741.84;5034075;28;20094;-68
2021/09/10 00:34:50;;;;;;;7.78;3.58;;;;;;;16.60;70.31;100708.47;5033918;28;20131;-68
2021/09/10 00:37:15;;;;;;;6.88;3.47;;;;;;;16.77;70.52;100724.34;5033840;28;20025;-67
2021/09/10 00:39:41;;;;;;;6.22;3.22;;;;;;;16.84;70.98;100738.38;5033790;28;20152;-68
2021/09/10 00:42:07;;;;;;;7.45;3.42;;;;;;;16.77;70.70;100719.13;5033636;28;20044;-71
2021/09/10 00:44:32;;;;;;;5.68;3.20;;;;;;;16.86;70.84;100737.56;5034141;28;20033;-68
2021/09/10 00:46:58;;;;;;;6.78;3.55;;;;;;;16.46;71.46;100711.72;5033772;28;20460;-68
2021/09/10 00:49:23;;;;;;;8.07;3.47;;;;;;;16.61;71.38;100736.25;5033797;28;20080;-68
2021/09/10 00:51:49;;;;;;;7.55;3.45;;;;;;;16.49;70.82;100703.06;5033803;28;20038;-68
2021/09/10 00:54:14;;;;;;;9.68;3.78;;;;;;;16.71;70.10;100742.50;5033549;28;20515;-68
2021/09/10 00:56:40;;;;;;;8.45;3.30;;;;;;;16.74;70.97;100739.97;5033144;28;20026;-68
2021/09/10 00:59:05;;;;;;;8.25;3.60;;;;;;;16.70;70.69;100743.34;5033082;28;20472;-67
2021/09/10 01:01:32;;;;;;;7.78;3.50;;;;;;;16.71;71.17;100745.13;5033499;28;20072;-68
2021/09/10 01:03:58;;;;;;;10.27;3.42;;;;;;;16.70;70.31;100744.25;5033161;28;20025;-68
2021/09/10 01:06:26;;;;;;;6.70;3.55;;;;;;;16.65;70.93;100751.97;5033187;28;20029;-68
2021/09/10 01:08:52;;;;;;;8.95;4.00;;;;;;;16.65;71.14;100751.13;5033289;28;20025;-68
2021/09/10 01:11:18;;;;;;;7.35;3.53;;;;;;;16.68;70.87;100752.91;5033110;28;20037;-68
2021/09/10 01:13:45;;;;;;;6.00;3.47;;;;;;;16.57;70.63;100744.88;5033386;28;20104;-68
2021/09/10 01:16:11;;;;;;;11.35;4.25;;;;;;;16.75;70.41;100767.78;5032793;28;20065;-68
2021/09/10 01:18:36;;;;;;;6.00;3.50;;;;;;;16.52;69.87;100757.84;5032536;28;20067;-67
2021/09/10 01:21:02;;;;;;;5.00;3.53;;;;;;;16.54;70.31;100750.06;5032956;28;20160;-68
2021/09/10 01:23:27;;;;;;;7.68;3.85;;;;;;;16.36;70.74;100755.81;5032952;28;20033;-66
2021/09/10 01:25:53;;;;;;;5.63;3.67;;;;;;;16.39;70.70;100758.50;5032577;28;20515;-69
2021/09/10 01:28:18;;;;;;;7.32;3.78;;;;;;;16.41;70.64;100752.47;5032935;28;20030;-68
2021/09/10 01:30:47;;;;;;;7.20;3.85;;;;;;;16.46;70.81;100755.13;5032753;28;20060;-68
2021/09/10 01:33:12;;;;;;;7.10;3.50;;;;;;;16.41;71.16;100754.16;5032934;28;20033;-68
2021/09/10 01:35:38;;;;;;;6.03;3.28;;;;;;;16.38;71.49;100760.22;5033022;28;20037;-68
2021/09/10 01:38:06;;;;;;;5.78;3.90;;;;;;;16.44;71.67;100764.66;5032549;28;20388;-68
2021/09/10 01:40:31;;;;;;;4.90;3.42;;;;;;;16.45;71.26;100750.78;5032395;28;20388;-68
2021/09/10 01:42:57;;;;;;;6.03;3.63;;;;;;;16.34;70.83;100754.06;5032658;28;20030;-68
2021/09/10 01:45:22;;;;;;;6.60;3.78;;;;;;;16.14;70.53;100711.16;5032412;28;20492;-68
2021/09/10 01:47:48;;;;;;;7.45;3.90;;;;;;;16.22;70.60;100753.84;5032622;28;20108;-67
2021/09/10 01:50:16;;;;;;;8.55;3.67;;;;;;;16.30;70.59;100752.25;5032609;28;20464;-68
2021/09/10 01:52:42;;;;;;;7.80;3.78;;;;;;;16.39;70.86;100759.34;5032597;28;20116;-67
2021/09/10 01:55:10;;;;;;;7.75;3.17;;;;;;;16.39;71.14;100751.53;5031885;28;20072;-68
2021/09/10 01:57:36;;;;;;;6.38;3.45;;;;;;;16.34;71.24;100759.28;5032326;28;20036;-67
2021/09/10 02:00:04;;;;;;;6.53;3.88;;;;;;;16.28;71.63;100753.09;5032263;28;20021;-68
2021/09/10 02:02:30;;;;;;;7.25;3.90;;;;;;;16.21;71.91;100754.69;5032174;28;20499;-68
2021/09/10 02:04:55;;;;;;;7.57;4.28;;;;;;;16.09;71.96;100749.28;5032358;28;20040;-71
2021/09/10 02:07:20;;;;;;;7.40;3.72;;;;;;;16.17;71.72;100755.47;5031695;28;20079;-68
2021/09/10 02:09:46;;;;;;;7.55;3.75;;;;;;;16.22;72.30;100746.03;5032149;28;20029;-66
2021/09/10 02:12:11;;;;;;;8.07;3.80;;;;;;;16.31;72.36;100751.41;5032067;28;20026;-68
2021/09/10 02:14:37;;;;;;;5.68;3.70;;;;;;;16.22;72.81;100739.94;5032192;28;20029;-71
2021/09/10 02:17:03;;;;;;;5.60;3.50;;;;;;;16.27;72.96;100739.16;5031912;28;20053;-70
2021/09/10 02:19:29;;;;;;;6.60;3.42;;;;;;;16.15;72.74;100705.09;5031972;28;20082;-68
2021/09/10 02:21:55;;;;;;;6.80;3.17;;;;;;;16.32;73.20;100736.66;5031654;28;20497;-68
2021/09/10 02:24:21;;;;;;;11.02;3.72;;;;;;;16.28;73.43;100732.25;5031749;28;20083;-68
2021/09/10 02:26:47;;;;;;;8.77;3.92;;;;;;;16.13;74.30;100725.91;5031792;28;20382;-69
2021/09/10 02:29:13;;;;;;;9.43;3.70;;;;;;;16.21;74.26;100728.63;5030928;28;20068;-68
2021/09/10 02:31:40;;;;;;;5.78;3.92;;;;;;;16.35;73.31;100736.72;5031688;28;20032;-67
2021/09/10 02:34:06;;;;;;;6.57;3.60;;;;;;;16.35;73.00;100731.50;5031623;28;20029;-68
2021/09/10 02:36:34;;;;;;;6.20;3.80;;;;;;;16.33;73.34;100723.63;5031457;28;20116;-67
2021/09/10 02:39:00;;;;;;;6.55;3.47;;;;;;;16.15;73.13;100682.53;5031508;28;20033;-68
2021/09/10 02:41:25;;;;;;;6.10;3.70;;;;;;;16.15;72.69;100679.94;5031988;28;20022;-68
2021/09/10 02:43:50;;;;;;;6.90;3.80;;;;;;;16.38;72.71;100709.84;5032124;28;20395;-68
2021/09/10 02:46:16;;;;;;;8.57;3.65;;;;;;;16.47;72.08;100725.63;5031688;28;20432;-68
2021/09/10 02:48:41;;;;;;;8.63;3.88;;;;;;;16.44;71.64;100725.56;5031837;28;20431;-68
2021/09/10 02:51:07;;;;;;;6.15;3.80;;;;;;;16.42;71.44;100720.31;5031584;28;20029;-68
2021/09/10 02:53:32;;;;;;;6.20;3.72;;;;;;;16.49;71.53;100726.53;5031670;28;20041;-67
2021/09/10 02:55:59;;;;;;;7.80;4.10;;;;;;;16.50;71.35;100718.72;5031454;28;20079;-68
2021/09/10 02:58:24;;;;;;;11.30;3.72;;;;;;;16.45;71.41;100717.78;5031512;28;20030;-68
2021/09/10 03:00:49;;;;;;;8.27;3.75;;;;;;;16.34;71.51;100725.41;5031619;28;20022;-68
2021/09/10 03:03:15;;;;;;;6.75;4.00;;;;;;;16.26;72.42;100727.00;5031690;28;20029;-67
2021/09/10 03:05:41;;;;;;;8.95;3.33;;;;;;;16.24;72.96;100723.50;5031345;28;20056;-68
2021/09/10 03:08:06;;;;;;;8.93;3.88;;;;;;;16.06;73.27;100720.56;5031401;28;20033;-68
2021/09/10 03:10:32;;;;;;;7.43;3.70;;;;;;;15.89;74.41;100720.22;5031633;28;20033;-68
2021/09/10 03:12:57;;;;;;;7.20;3.47;;;;;;;15.85;74.88;100719.31;5031536;28;20030;-68
2021/09/10 03:15:23;;;;;;;7.22;3.65;;;;;;;15.75;75.46;100723.44;5031513;28;20026;-67
2021/09/10 03:17:48;;;;;;;10.35;3.95;;;;;;;15.72;75.37;100712.06;5031243;28;20034;-68
2021/09/10 03:20:13;;;;;;;10.55;3.70;;;;;;;15.60;75.41;100679.75;5031252;28;20028;-68
2021/09/10 03:22:39;;;;;;;10.20;3.75;;;;;;;15.84;75.18;100722.75;5031401;28;20034;-68
2021/09/10 03:25:06;;;;;;;7.30;4.07;;;;;;;15.78;75.35;100709.59;5031330;28;20475;-68
2021/09/10 03:27:31;;;;;;;10.27;4.13;;;;;;;15.88;75.32;100718.50;5031153;28;20033;-68
2021/09/10 03:29:57;;;;;;;12.10;3.83;;;;;;;15.90;75.15;100720.28;5031183;28;20450;-68
2021/09/10 03:32:22;;;;;;;8.07;4.05;;;;;;;15.76;74.45;100693.91;5031264;28;20032;-67
2021/09/10 03:34:48;;;;;;;10.02;4.40;;;;;;;15.73;74.81;100714.69;5029355;28;20128;-68
2021/09/10 03:37:15;;;;;;;8.80;3.70;;;;;;;15.60;75.56;100710.09;5031171;28;20381;-67
2021/09/10 03:39:41;;;;;;;9.20;4.90;;;;;;;15.36;77.04;100700.94;5047273;28;20404;-68
2021/09/10 03:42:06;;;;;;;9.23;4.57;;;;;;;15.23;77.66;100720.59;5035045;28;20037;-68
2021/09/10 03:44:32;;;;;;;19.23;4.93;;;;;;;14.86;79.85;100718.03;5034882;28;20029;-67
2021/09/10 03:46:59;;;;;;;11.43;5.07;;;;;;;14.92;79.64;100714.72;5034775;28;20037;-67
2021/09/10 03:49:26;;;;;;;15.57;8.85;;;;;;;14.69;80.84;100721.97;5034835;28;20403;-67
2021/09/10 03:51:52;;;;;;;16.35;9.73;;;;;;;14.71;80.83;100730.69;5034642;28;20527;-67
2021/09/10 03:54:18;;;;;;;20.25;11.77;;;;;;;14.71;81.27;100715.09;5034667;28;20092;-67
2021/09/10 03:56:43;;;;;;;19.20;10.65;;;;;;;14.83;80.73;100717.13;5034576;28;20026;-67
2021/09/10 03:59:09;;;;;;;20.02;9.90;;;;;;;14.91;80.22;100722.50;5034305;28;20494;-68
2021/09/10 04:01:34;;;;;;;17.25;8.48;;;;;;;15.03;79.34;100717.56;5034414;28;20025;-67
2021/09/10 04:04:00;;;;;;;15.20;8.07;;;;;;;15.12;78.96;100716.91;5034285;28;20496;-68
2021/09/10 04:06:25;;;;;;;16.77;8.15;;;;;;;15.25;78.33;100721.50;5033994;28;20059;-68
2021/09/10 04:08:51;;;;;;;12.23;7.80;;;;;;;15.26;77.67;100723.25;5034514;28;20108;-68
2021/09/10 04:11:16;;;;;;;12.07;7.10;;;;;;;15.21;77.35;100714.47;5034290;28;20029;-67
2021/09/10 04:13:42;;;;;;;12.70;6.80;;;;;;;15.21;77.68;100730.09;5034324;28;20037;-68
2021/09/10 04:16:07;;;;;;;12.23;6.68;;;;;;;15.03;77.93;100687.22;5034062;28;20087;-67
2021/09/10 04:18:33;;;;;;;12.90;6.75;;;;;;;15.36;77.49;100722.63;5032071;28;20057;-68
2021/09/10 04:20:58;;;;;;;8.93;5.53;;;;;;;15.37;77.50;100720.91;5033904;28;20028;-66
2021/09/10 04:23:25;;;;;;;12.52;5.35;;;;;;;15.12;78.59;100732.50;5034258;28;20427;-68
2021/09/10 04:25:51;;;;;;;12.02;5.07;;;;;;;15.12;79.22;100724.69;5033997;28;20021;-68
2021/09/10 04:28:16;;;;;;;7.95;5.18;;;;;;;14.81;80.44;100724.84;5033944;28;20496;-67
2021/09/10 04:30:41;;;;;;;8.00;5.07;;;;;;;14.81;80.29;100726.59;5033834;28;20032;-68
2021/09/10 04:33:07;;;;;;;10.57;5.70;;;;;;;14.94;80.33;100738.13;5033738;28;20480;-66
2021/09/10 04:35:32;;;;;;;11.82;7.22;;;;;;;15.01;80.07;100740.91;5033640;28;20029;-68
2021/09/10 04:37:58;;;;;;;24.40;14.43;;;;;;;14.98;79.79;100745.19;5033911;28;20045;-68
2021/09/10 04:40:23;;;;;;;23.85;14.05;;;;;;;15.14;79.36;100741.19;5033789;28;20056;-68
2021/09/10 04:42:49;;;;;;;23.48;13.13;;;;;;;15.12;78.35;100730.75;5033713;28;20039;-68
2021/09/10 04:45:14;;;;;;;15.45;9.10;;;;;;;15.28;77.77;100744.13;5033810;28;20029;-68
2021/09/10 04:47:40;;;;;;;11.18;6.82;;;;;;;15.33;77.46;100743.38;5037568;28;20029;-72
2021/09/10 04:50:06;;;;;;;9.85;6.07;;;;;;;15.40;77.23;100733.09;5053279;28;20070;-68
2021/09/10 04:52:32;;;;;;;10.18;6.40;;;;;;;15.40;77.58;100746.97;5051338;28;20564;-67
2021/09/10 04:54:58;;;;;;;9.75;4.78;;;;;;;15.18;77.06;100693.63;5051113;28;20499;-68
2021/09/10 04:57:23;;;;;;;7.82;5.05;;;;;;;15.27;77.21;100704.22;5053389;28;20072;-67
2021/09/10 04:59:49;;;;;;;11.43;5.15;;;;;;;15.47;76.87;100724.59;5052728;28;20471;-67
2021/09/10 05:02:14;;;;;;;15.00;5.80;;;;;;;15.54;76.67;100734.28;5052821;28;20036;-68
2021/09/10 05:04:40;;;;;;;12.40;5.13;;;;;;;15.39;77.21;100741.75;5053162;28;20024;-68
2021/09/10 05:07:05;;;;;;;10.75;5.10;;;;;;;15.43;77.33;100738.38;5053367;28;20444;-68
2021/09/10 05:09:31;;;;;;;9.38;4.93;;;;;;;15.48;77.36;100735.00;5053058;28;20032;-67
2021/09/10 05:11:56;;;;;;;8.73;5.25;;;;;;;15.51;77.13;100736.81;5053009;28;20025;-67
2021/09/10 05:14:22;;;;;;;11.20;4.90;;;;;;;15.66;76.99;100734.53;5052852;28;20017;-67
2021/09/10 05:16:49;;;;;;;15.30;4.78;;;;;;;15.70;77.08;100730.25;5052835;28;20052;-68
2021/09/10 05:19:15;;;;;;;13.32;5.25;;;;;;;15.76;77.66;100738.16;5052622;28;20091;-68
2021/09/10 05:21:41;;;;;;;10.75;5.32;;;;;;;15.73;77.76;100742.47;5051643;28;20449;-67
2021/09/10 05:24:06;;;;;;;9.90;5.75;;;;;;;15.56;78.10;100739.50;5052828;28;20024;-68
2021/09/10 05:26:32;;;;;;;9.93;5.63;;;;;;;15.61;78.07;100740.47;5052627;28;20033;-67
2021/09/10 05:28:58;;;;;;;9.20;5.45;;;;;;;15.75;77.63;100748.56;5052829;28;20025;-68
2021/09/10 05:31:23;;;;;;;12.00;5.40;;;;;;;15.57;77.05;100699.63;5052997;28;20514;-68
2021/09/10 05:33:48;;;;;;;10.10;5.38;;;;;;;15.90;76.84;100748.03;5052599;28;20033;-67
2021/09/10 05:36:14;;;;;;;13.25;5.97;;;;;;;15.88;76.86;100744.53;5052798;28;20056;-68
2021/09/10 05:38:39;;;;;;;8.98;5.43;;;;;;;15.96;76.57;100743.84;5052731;28;20028;-68
2021/09/10 05:41:05;;;;;;;12.38;5.80;;;;;;;16.08;76.70;100750.97;5052679;28;20033;-68
2021/09/10 05:43:30;;;;;;;10.52;5.40;;;;;;;16.07;76.73;100748.34;5052560;28;20064;-67
2021/09/10 05:45:57;;;;;;;11.25;5.60;;;;;;;16.16;76.98;100749.41;5052382;28;20033;-68
2021/09/10 05:48:22;;;;;;;13.02;5.43;;;;;;;16.21;77.22;100749.47;5052342;28;20017;-68
2021/09/10 05:50:50;;;;;;;8.90;5.57;;;;;;;16.12;77.46;100747.56;5052184;28;20534;-67
2021/09/10 05:53:16;;;;;;;9.32;6.55;;;;;;;15.91;78.58;100745.44;5052741;28;20053;-68
2021/09/10 05:55:42;;;;;;;18.27;5.95;;;;;;;16.03;79.07;100743.94;5052219;28;20526;-68
2021/09/10 05:58:08;;;;;;;11.68;5.68;;;;;;;16.17;78.40;100750.28;5052175;28;20060;-67
2021/09/10 06:00:34;;;;;;;8.15;5.45;;;;;;;16.34;78.07;100750.59;5052191;28;20032;-67
2021/09/10 06:02:59;;;;;;;10.27;5.13;;;;;;;16.46;77.76;100749.91;5051955;28;20032;-67
2021/09/10 06:05:26;;;;;;;8.55;5.40;;;;;;;16.54;77.39;100739.63;5052267;28;20455;-67
2021/09/10 06:07:51;;;;;;;20.30;5.85;;;;;;;16.36;77.19;100706.31;5052078;28;20040;-67
2021/09/10 06:10:18;;;;;;;10.30;5.43;;;;;;;16.69;77.14;100746.84;5052182;28;20407;-67
2021/09/10 06:12:48;;;;;;;13.70;5.78;;;;;;;16.91;76.26;100745.41;5030020;28;20042;-67
2021/09/10 06:15:13;;;;;;;10.55;4.95;;;;;;;17.01;75.78;100743.88;5029818;28;20539;-67
2021/09/10 06:17:40;;;;;;;10.05;5.57;;;;;;;17.04;76.69;100751.75;5029508;28;20120;-67
2021/09/10 06:20:06;;;;;;;10.02;5.53;;;;;;;17.03;76.68;100753.47;5029722;28;20488;-67
2021/09/10 06:22:32;;;;;;;6.60;5.18;;;;;;;16.81;76.50;100706.19;5029704;28;20106;-67
2021/09/10 06:24:59;;;;;;;14.23;5.35;;;;;;;17.31;76.01;100753.88;5029538;28;20544;-67
2021/09/10 06:27:25;;;;;;;10.05;4.70;;;;;;;17.51;75.50;100754.16;5013015;28;20044;-67
2021/09/10 06:29:50;;;;;;;11.23;5.07;;;;;;;17.71;75.25;100751.78;5029493;28;20102;-67
2021/09/10 06:32:16;;;;;;;10.18;5.10;;;;;;;17.88;74.33;100759.81;5029701;28;20495;-66
2021/09/10 06:34:42;;;;;;;8.43;4.60;;;;;;;18.01;75.26;100760.00;5029677;28;20030;-67
2021/09/10 06:37:07;;;;;;;13.23;5.05;;;;;;;17.98;74.11;100744.28;5029774;28;20475;-67
2021/09/10 06:39:34;;;;;;;15.40;5.68;;;;;;;18.12;74.92;100755.75;5029791;28;20033;-67
2021/09/10 06:41:59;;;;;;;11.68;5.55;;;;;;;18.19;75.16;100757.56;5029642;28;20120;-67
2021/09/10 06:44:25;;;;;;;10.05;5.03;;;;;;;18.26;73.46;100751.53;5047136;28;20103;-67
2021/09/10 06:46:50;;;;;;;11.35;5.10;;;;;;;18.42;74.20;100756.94;5051566;28;20087;-68
2021/09/10 06:49:16;;;;;;;9.45;5.53;;;;;;;18.46;72.65;100763.06;5051542;28;20032;-67
2021/09/10 06:51:41;;;;;;;9.95;5.95;;;;;;;18.49;72.87;100756.13;5051712;28;20108;-67
2021/09/10 06:54:07;;;;;;;15.98;5.90;;;;;;;18.68;72.05;100756.25;5051385;28;20060;-67
2021/09/10 06:56:33;;;;;;;10.27;5.53;;;;;;;18.61;72.43;100754.47;5051294;28;20040;-67
2021/09/10 06:58:58;;;;;;;12.15;5.47;;;;;;;18.79;72.33;100769.44;5051193;28;20029;-67
2021/09/10 07:01:24;;;;;;;7.57;4.70;;;;;;;18.91;71.04;100770.41;5051307;28;20490;-68
2021/09/10 07:03:49;;;;;;;12.25;5.00;;;;;;;18.88;69.97;100772.13;5051676;28;20032;-68
2021/09/10 07:06:15;;;;;;;13.35;4.82;;;;;;;19.15;70.23;100770.59;5051501;28;20112;-67
2021/09/10 07:08:40;;;;;;;15.13;6.18;;;;;;;19.21;70.05;100768.88;5032970;28;20469;-67
2021/09/10 07:11:06;;;;;;;13.40;6.07;;;;;;;19.46;67.90;100768.16;5051556;28;20392;-67
2021/09/10 07:13:31;;;;;;;20.63;12.23;;;;;;;19.59;66.87;100762.13;5051364;28;20069;-66
2021/09/10 07:15:57;;;;;;;11.90;5.90;;;;;;;19.80;66.10;100769.19;5053495;28;20139;-67
2021/09/10 07:18:22;;;;;;;10.55;4.50;;;;;;;19.91;65.69;100758.75;5055233;28;20091;-67
2021/09/10 07:20:48;;;;;;;7.65;3.08;;;;;;;20.12;63.78;100768.41;5036399;28;20048;-67
2021/09/10 07:23:14;;;;;;;13.05;3.50;;;;;;;20.27;63.65;100766.72;5055222;28;20542;-68
2021/09/10 07:25:40;;;;;;;9.30;3.00;;;;;;;20.16;61.76;100730.00;5054791;28;20086;-67
2021/09/10 07:28:06;;;;;;;8.68;3.00;;;;;;;20.54;61.49;100765.88;5054901;28;20029;-67
2021/09/10 07:30:33;;;;;;;7.05;2.80;;;;;;;20.81;60.08;100780.78;5054892;28;20036;-67
2021/09/10 07:32:58;;;;;;;6.65;2.85;;;;;;;20.88;59.98;100762.41;5055155;28;20395;-67
2021/09/10 07:35:24;;;;;;;7.85;2.63;;;;;;;20.86;58.57;100754.53;5054978;28;20033;-68
2021/09/10 07:37:49;;;;;;;7.20;2.40;;;;;;;21.01;58.07;100761.53;5054759;28;20020;-68
2021/09/10 07:40:16;;;;;;;12.73;2.70;;;;;;;21.20;60.51;100764.09;5054878;28;20112;-67
2021/09/10 07:42:45;;;;;;;7.65;2.40;;;;;;;21.23;58.08;100764.94;5054719;28;20384;-67
2021/09/10 07:45:12;;;;;;;6.63;2.58;;;;;;;21.31;58.48;100764.97;5054691;28;20033;-67
2021/09/10 07:47:39;;;;;;;7.07;2.38;;;;;;;21.42;57.00;100762.28;5054666;28;20060;-68
2021/09/10 07:50:06;;;;;;;6.75;2.28;;;;;;;21.50;58.49;100750.00;5054852;28;20100;-67
2021/09/10 07:52:32;;;;;;;5.88;2.08;;;;;;;21.81;54.18;100770.94;5054875;28;20040;-68
2021/09/10 07:54:57;;;;;;;6.72;2.50;;;;;;;21.86;54.02;100758.63;5054379;28;20053;-67
2021/09/10 07:57:23;;;;;;;11.10;2.28;;;;;;;21.85;53.32;100771.78;5054202;28;20047;-68
2021/09/10 07:59:55;;;;;;;4.80;1.90;;;;;;;21.82;53.45;100764.81;5054436;28;20028;-66
2021/09/10 08:02:22;;;;;;;9.65;2.30;;;;;;;21.90;53.09;100759.50;5054640;28;20029;-68
2021/09/10 08:04:47;;;;;;;6.28;2.30;;;;;;;21.50;55.01;100719.34;5054509;28;20063;-67
2021/09/10 08:07:13;;;;;;;10.00;2.78;;;;;;;21.68;55.58;100756.97;5054244;28;20061;-67
2021/09/10 08:09:39;;;;;;;9.73;2.95;;;;;;;21.73;53.56;100752.59;5054301;28;20099;-66
2021/09/10 08:12:04;;;;;;;12.20;2.58;;;;;;;21.96;53.47;100748.94;5053991;28;20036;-67
2021/09/10 08:14:30;;;;;;;8.00;2.40;;;;;;;21.91;54.94;100740.22;5054229;28;20021;-69
2021/09/10 08:16:55;;;;;;;7.18;2.47;;;;;;;21.48;54.73;100680.84;5054329;28;20446;-68
2021/09/10 08:19:21;;;;;;;6.25;2.47;;;;;;;21.85;53.42;100735.00;5053990;28;20021;-68
2021/09/10 08:21:46;;;;;;;7.40;2.55;;;;;;;21.73;52.21;100751.69;5054086;28;20039;-67
2021/09/10 08:24:12;;;;;;;9.60;2.40;;;;;;;21.80;52.80;100742.91;5053883;28;20111;-68
2021/09/10 08:26:38;;;;;;;4.65;2.20;;;;;;;21.97;52.25;100741.06;5052351;28;20029;-68
2021/09/10 08:29:03;;;;;;;7.60;2.75;;;;;;;21.89;54.40;100744.59;5053998;28;20053;-68
2021/09/10 08:31:29;;;;;;;5.07;2.17;;;;;;;21.90;53.21;100738.47;5054077;28;20104;-68
2021/09/10 08:33:54;;;;;;;5.93;2.50;;;;;;;21.97;53.26;100725.28;5054061;28;20044;-67
2021/09/10 08:36:22;;;;;;;8.15;2.38;;;;;;;22.29;53.15;100733.81;5053856;28;20025;-67
2021/09/10 08:38:48;;;;;;;9.00;2.45;;;;;;;22.48;53.24;100731.09;5053778;28;20025;-67
2021/09/10 08:41:16;;;;;;;5.70;1.92;;;;;;;22.23;44.93;100691.78;5053690;28;20087;-68
2021/09/10 08:43:48;;;;;;;6.70;1.92;;;;;;;22.67;45.92;100718.63;5053966;28;20031;-67
2021/09/10 08:46:14;;;;;;;8.57;1.95;;;;;;;22.76;46.36;100718.56;5053710;28;20108;-67
2021/09/10 08:48:44;;;;;;;4.45;1.80;;;;;;;22.84;44.74;100714.13;5053627;28;20021;-67
2021/09/10 08:51:10;;;;;;;6.03;1.85;;;;;;;22.86;42.77;100707.06;5053584;28;20032;-67
2021/09/10 08:53:35;;;;;;;4.43;1.45;;;;;;;22.90;40.16;100703.53;5053375;28;20045;-67
2021/09/10 08:56:01;;;;;;;4.25;1.70;;;;;;;22.93;42.26;100707.88;5053177;28;20108;-68
2021/09/10 08:58:26;;;;;;;7.40;1.77;;;;;;;22.89;43.63;100709.66;5053380;28;20025;-68
2021/09/10 09:00:57;;;;;;;5.80;2.17;;;;;;;22.83;43.04;100711.47;5053364;28;20028;-67
2021/09/10 09:03:28;;;;;;;7.03;2.10;;;;;;;23.04;43.27;100713.00;5053298;28;20051;-68
2021/09/10 09:05:53;;;;;;;4.53;1.80;;;;;;;22.87;41.48;100665.81;5053153;28;20089;-66
2021/09/10 09:08:19;;;;;;;6.55;2.05;;;;;;;23.22;40.76;100690.91;5052841;28;20025;-67
2021/09/10 09:10:58;;;;;;;9.85;1.90;;;;;;;23.27;41.02;100694.34;5053060;28;20029;-68
2021/09/10 09:13:36;;;;;;;7.30;2.17;;;;;;;23.47;39.18;100688.84;5053142;28;20048;-67
2021/09/10 09:16:27;;;;;;;7.20;2.03;;;;;;;23.78;35.65;100698.09;5052735;28;20086;-66
2021/09/10 09:18:55;;;;;;;6.20;1.90;;;;;;;23.99;38.11;100694.28;5052649;28;20063;-68
2021/09/10 09:21:31;;;;;;;3.63;1.70;;;;;;;24.12;39.34;100684.44;5053023;28;20068;-68
2021/09/10 09:24:20;;;;;;;3.83;1.60;;;;;;;24.25;38.54;100693.91;5052895;28;20083;-68
2021/09/10 09:26:51;;;;;;;8.50;1.75;;;;;;;24.27;36.03;100680.69;5051374;28;20104;-66
2021/09/10 09:29:21;;;;;;;8.57;1.95;;;;;;;24.31;38.57;100669.16;5052657;28;20402;-68
2021/09/10 09:31:58;;;;;;;5.55;1.85;;;;;;;24.40;36.28;100684.88;5052610;28;20033;-68
2021/09/10 09:34:43;;;;;;;7.60;2.33;;;;;;;24.21;36.07;100681.63;5052656;28;20503;-68
2021/09/10 09:37:09;;;;;;;4.25;1.80;;;;;;;24.31;37.27;100677.09;5052482;28;20487;-68
2021/09/10 09:39:54;;;;;;;5.05;2.20;;;;;;;24.21;38.58;100682.53;5052461;28;20082;-68
2021/09/10 09:42:24;;;;;;;5.35;2.30;;;;;;;24.17;38.27;100680.81;5052776;28;20435;-68
2021/09/10 09:45:15;;;;;;;9.27;2.08;;;;;;;24.22;36.07;100649.09;5052708;28;20028;-68
2021/09/10 09:47:45;;;;;;;11.90;2.75;;;;;;;24.49;37.13;100644.25;5052443;28;20483;-68
2021/09/10 09:50:13;;;;;;;12.60;3.20;;;;;;;24.87;35.54;100671.72;5052733;28;20384;-68
2021/09/10 09:52:39;;;;;;;12.65;3.10;;;;;;;25.08;36.37;100669.56;5052470;28;20108;-67
2021/09/10 09:55:07;;;;;;;11.63;2.92;;;;;;;25.30;35.65;100662.06;5052465;28;20179;-70
2021/09/10 09:57:33;;;;;;;15.80;3.47;;;;;;;25.49;34.40;100655.50;5052144;28;20479;-68
2021/09/10 10:00:09;;;;;;;8.30;2.55;;;;;;;25.42;33.46;100653.03;5052241;28;20029;-68
2021/09/10 10:02:36;;;;;;;8.98;1.92;;;;;;;25.50;34.36;100646.66;5052209;28;20027;-68
2021/09/10 10:05:02;;;;;;;4.18;1.60;;;;;;;25.72;37.13;100650.59;5050170;28;20391;-68
2021/09/10 10:07:41;;;;;;;4.93;1.95;;;;;;;25.55;35.96;100645.72;5052199;28;20400;-68
2021/09/10 10:10:07;;;;;;;6.70;2.10;;;;;;;25.11;35.72;100648.34;5052201;28;20036;-68
2021/09/10 10:12:34;;;;;;;7.68;2.33;;;;;;;25.43;34.46;100645.06;5052092;28;20032;-68
2021/09/10 10:15:21;;;;;;;7.20;1.92;;;;;;;25.64;36.77;100649.00;5051763;28;20025;-68
2021/09/10 10:17:48;;;;;;;6.25;2.00;;;;;;;25.43;36.13;100591.34;5051870;28;20036;-68
2021/09/10 10:20:45;;;;;;;6.40;2.00;;;;;;;25.69;34.35;100646.25;5050782;28;20051;-68
2021/09/10 10:23:44;;;;;;;5.28;1.92;;;;;;;25.16;36.40;100644.72;5051854;28;20057;-68
2021/09/10 10:26:32;;;;;;;5.07;1.98;;;;;;;25.60;35.61;100647.34;5050461;28;20052;-68
2021/09/10 10:29:09;;;;;;;5.78;1.90;;;;;;;25.75;33.11;100640.81;5051838;28;20028;-68
2021/09/10 10:32:07;;;;;;;4.40;1.95;;;;;;;25.87;34.12;100639.69;5051604;28;20025;-68
2021/09/10 10:34:35;;;;;;;5.25;1.70;;;;;;;26.05;35.15;100641.00;4990222;28;20089;-68
2021/09/10 10:37:01;;;;;;;8.57;2.20;;;;;;;26.20;33.84;100634.47;4990271;28;20141;-68
2021/09/10 10:39:31;;;;;;;9.20;2.13;;;;;;;26.40;33.85;100633.94;4990314;28;20415;-68
2021/09/10 10:42:02;;;;;;;7.38;2.15;;;;;;;26.34;33.24;100633.25;4990344;28;20520;-68
2021/09/10 10:44:33;;;;;;;6.03;1.75;;;;;;;26.47;34.52;100635.53;4990315;28;20409;-68
2021/09/10 10:47:11;;;;;;;9.68;2.20;;;;;;;26.52;35.63;100631.88;4990449;28;20042;-68
2021/09/10 10:49:37;;;;;;;13.85;3.33;;;;;;;26.64;31.47;100621.84;4990563;28;20040;-68
2021/09/10 10:52:23;;;;;;;13.45;2.78;;;;;;;26.77;33.38;100617.09;4994396;28;20093;-68
2021/09/10 10:55:27;;;;;;;8.07;2.50;;;;;;;26.85;31.85;100616.03;4974397;28;20088;-68
2021/09/10 10:57:54;;;;;;;11.00;2.55;;;;;;;26.79;33.40;100609.09;4898268;29;20555;-68
2021/09/10 11:00:42;;;;;;;8.27;2.15;;;;;;;27.16;29.67;100607.19;4898349;29;20075;-68
2021/09/10 11:03:14;;;;;;;9.90;3.43;;;;;;;26.59;31.41;100578.75;4842623;29;20042;-68
2021/09/10 11:05:40;;;;;;;7.20;2.00;;;;;;;27.09;33.23;100615.31;4842457;29;20065;-68
2021/09/10 11:08:06;;;;;;;5.55;1.90;;;;;;;26.88;32.10;100614.16;4842538;29;20140;-68
2021/09/10 11:10:34;;;;;;;5.28;1.85;;;;;;;26.08;32.21;100614.50;4848117;29;20177;-68
2021/09/10 11:13:00;;;;;;;8.57;2.15;;;;;;;26.37;31.65;100619.94;4879362;29;20065;-68
2021/09/10 11:15:32;;;;;;;5.20;1.83;;;;;;;26.83;32.05;100616.06;4860127;29;20129;-68
2021/09/10 11:18:08;;;;;;;4.53;1.73;;;;;;;27.02;31.37;100610.25;4860348;29;20061;-68
2021/09/10 11:20:35;;;;;;;11.77;2.50;;;;;;;27.25;27.72;100601.59;4860487;29;20049;-71
2021/09/10 11:23:03;;;;;;;8.55;2.13;;;;;;;27.46;25.07;100593.94;4860703;29;20064;-68